sensor_id;sensor_type;location;lat;lon;timestamp;pressure;altitude;pressure_sealevel;temperature;humidity
706;BME280;21234;48.690;9.016;2023-01-28T00:00:53;96597.91;;;-1.29;97.03
706;BME280;21234;48.690;9.016;2023-01-28T00:03:20;96587.78;;;-1.33;96.78
706;BME280;21234;48.690;9.016;2023-01-28T00:05:46;96593.28;;;-1.35;96.88
706;BME280;21234;48.690;9.016;2023-01-28T00:08:13;96599.75;;;-1.29;96.73
706;BME280;21234;48.690;9.016;2023-01-28T00:10:40;96594.78;;;-1.32;96.71
706;BME280;21234;48.690;9.016;2023-01-28T00:13:10;96593.75;;;-1.23;96.62
706;BME280;21234;48.690;9.016;2023-01-28T00:15:38;96593.78;;;-1.31;97.08
706;BME280;21234;48.690;9.016;2023-01-28T00:18:05;96586.59;;;-1.31;96.85
706;BME280;21234;48.690;9.016;2023-01-28T00:20:32;96586.28;;;-1.36;96.99
706;BME280;21234;48.690;9.016;2023-01-28T00:22:59;96586.09;;;-1.34;97.39
706;BME280;21234;48.690;9.016;2023-01-28T00:25:26;96589.44;;;-1.32;97.35
706;BME280;21234;48.690;9.016;2023-01-28T00:27:53;96589.56;;;-1.26;97.51
706;BME280;21234;48.690;9.016;2023-01-28T00:30:21;96586.06;;;-1.26;96.71
706;BME280;21234;48.690;9.016;2023-01-28T00:32:48;96592.75;;;-1.22;96.15
706;BME280;21234;48.690;9.016;2023-01-28T00:35:14;96589.75;;;-1.27;96.56
706;BME280;21234;48.690;9.016;2023-01-28T00:37:44;96589.91;;;-1.29;96.58
706;BME280;21234;48.690;9.016;2023-01-28T00:40:11;96588.28;;;-1.38;97.09
706;BME280;21234;48.690;9.016;2023-01-28T00:42:38;96585.94;;;-1.41;97.83
706;BME280;21234;48.690;9.016;2023-01-28T00:45:05;96586.09;;;-1.34;97.40
706;BME280;21234;48.690;9.016;2023-01-28T00:47:34;96576.94;;;-1.32;97.59
706;BME280;21234;48.690;9.016;2023-01-28T00:50:01;96582.09;;;-1.30;97.50
706;BME280;21234;48.690;9.016;2023-01-28T00:52:28;96580.44;;;-1.31;96.92
706;BME280;21234;48.690;9.016;2023-01-28T00:54:54;96583.56;;;-1.28;96.42
706;BME280;21234;48.690;9.016;2023-01-28T00:57:22;96582.75;;;-1.28;97.00
706;BME280;21234;48.690;9.016;2023-01-28T00:59:48;96586.41;;;-1.29;96.76
706;BME280;21234;48.690;9.016;2023-01-28T01:02:15;96577.06;;;-1.25;97.06
706;BME280;21234;48.690;9.016;2023-01-28T01:04:43;96576.09;;;-1.32;97.15
706;BME280;21234;48.690;9.016;2023-01-28T01:07:21;96581.06;;;-1.29;96.79
706;BME280;21234;48.690;9.016;2023-01-28T01:09:57;96579.13;;;-1.36;97.16
706;BME280;21234;48.690;9.016;2023-01-28T01:12:25;96580.44;;;-1.31;97.69
706;BME280;21234;48.690;9.016;2023-01-28T01:14:51;96574.44;;;-1.33;97.20
706;BME280;21234;48.690;9.016;2023-01-28T01:17:18;96573.59;;;-1.34;96.80
706;BME280;21234;48.690;9.016;2023-01-28T01:19:47;96587.91;;;-1.27;97.42
706;BME280;21234;48.690;9.016;2023-01-28T01:22:14;96586.25;;;-1.28;97.60
706;BME280;21234;48.690;9.016;2023-01-28T01:24:40;96583.56;;;-1.28;97.17
706;BME280;21234;48.690;9.016;2023-01-28T01:27:07;96589.56;;;-1.26;97.16
706;BME280;21234;48.690;9.016;2023-01-28T01:29:34;96586.25;;;-1.28;97.28
706;BME280;21234;48.690;9.016;2023-01-28T01:32:01;96590.78;;;-1.37;97.71
706;BME280;21234;48.690;9.016;2023-01-28T01:34:27;96597.44;;;-1.32;97.13
706;BME280;21234;48.690;9.016;2023-01-28T01:36:55;96595.75;;;-1.17;96.65
706;BME280;21234;48.690;9.016;2023-01-28T01:39:22;96598.41;;;-1.17;97.04
706;BME280;21234;48.690;9.016;2023-01-28T01:41:49;96594.06;;;-1.18;96.37
706;BME280;21234;48.690;9.016;2023-01-28T01:47:35;96590.22;;;-1.16;95.96
706;BME280;21234;48.690;9.016;2023-01-28T01:50:08;96602.09;;;-1.26;96.43
706;BME280;21234;48.690;9.016;2023-01-28T01:52:37;96597.75;;;-1.27;97.24
706;BME280;21234;48.690;9.016;2023-01-28T01:55:08;96596.44;;;-1.40;97.78
706;BME280;21234;48.690;9.016;2023-01-28T01:57:37;96604.44;;;-1.31;97.95
706;BME280;21234;48.690;9.016;2023-01-28T02:00:06;96598.94;;;-1.38;98.60
706;BME280;21234;48.690;9.016;2023-01-28T02:02:36;96597.63;;;-1.34;99.38
706;BME280;21234;48.690;9.016;2023-01-28T02:05:04;96600.13;;;-1.32;99.25
706;BME280;21234;48.690;9.016;2023-01-28T02:07:32;96598.13;;;-1.39;99.53
706;BME280;21234;48.690;9.016;2023-01-28T02:10:00;96599.28;;;-1.33;99.65
706;BME280;21234;48.690;9.016;2023-01-28T02:12:29;96596.09;;;-1.28;99.30
706;BME280;21234;48.690;9.016;2023-01-28T02:15:02;96594.94;;;-1.34;100.00
706;BME280;21234;48.690;9.016;2023-01-28T02:17:30;96596.44;;;-1.31;100.00
706;BME280;21234;48.690;9.016;2023-01-28T02:19:59;96601.41;;;-1.28;100.00
706;BME280;21234;48.690;9.016;2023-01-28T02:25:56;96598.13;;;-1.30;99.91
706;BME280;21234;48.690;9.016;2023-01-28T02:28:33;96612.75;;;-1.26;99.72
706;BME280;21234;48.690;9.016;2023-01-28T02:31:10;96603.75;;;-1.25;100.00
706;BME280;21234;48.690;9.016;2023-01-28T02:33:42;96606.56;;;-1.19;99.84
706;BME280;21234;48.690;9.016;2023-01-28T02:36:18;96604.75;;;-1.18;99.74
706;BME280;21234;48.690;9.016;2023-01-28T02:38:49;96612.75;;;-1.18;99.41
706;BME280;21234;48.690;9.016;2023-01-28T02:41:22;96601.06;;;-1.17;99.66
706;BME280;21234;48.690;9.016;2023-01-28T02:43:52;96596.91;;;-1.20;99.83
706;BME280;21234;48.690;9.016;2023-01-28T02:46:21;96604.91;;;-1.20;99.74
706;BME280;21234;48.690;9.016;2023-01-28T02:49:18;96607.06;;;-1.15;99.25
706;BME280;21234;48.690;9.016;2023-01-28T02:51:56;96611.25;;;-1.21;99.15
706;BME280;21234;48.690;9.016;2023-01-28T02:54:33;96605.75;;;-1.19;99.42
706;BME280;21234;48.690;9.016;2023-01-28T02:57:08;96611.25;;;-1.21;99.39
706;BME280;21234;48.690;9.016;2023-01-28T02:59:43;96609.75;;;-1.23;99.33
706;BME280;21234;48.690;9.016;2023-01-28T03:02:19;96613.91;;;-1.21;98.98
706;BME280;21234;48.690;9.016;2023-01-28T03:04:52;96615.94;;;-1.31;99.73
706;BME280;21234;48.690;9.016;2023-01-28T03:07:22;96618.59;;;-1.23;99.81
706;BME280;21234;48.690;9.016;2023-01-28T03:09:51;96622.59;;;-1.27;99.74
706;BME280;21234;48.690;9.016;2023-01-28T03:12:25;96620.91;;;-1.28;99.86
706;BME280;21234;48.690;9.016;2023-01-28T03:15:14;96618.25;;;-1.28;100.00
706;BME280;21234;48.690;9.016;2023-01-28T03:18:01;96617.94;;;-1.33;100.00
706;BME280;21234;48.690;9.016;2023-01-28T03:20:50;96617.25;;;-1.19;100.00
706;BME280;21234;48.690;9.016;2023-01-28T03:23:41;96621.59;;;-1.18;100.00
706;BME280;21234;48.690;9.016;2023-01-28T03:26:27;96620.75;;;-1.18;100.00
706;BME280;21234;48.690;9.016;2023-01-28T03:29:16;96616.59;;;-1.29;100.00
706;BME280;21234;48.690;9.016;2023-01-28T03:32:02;96620.78;;;-1.34;100.00
706;BME280;21234;48.690;9.016;2023-01-28T03:34:47;96619.44;;;-1.30;100.00
706;BME280;21234;48.690;9.016;2023-01-28T03:37:31;96611.75;;;-1.25;100.00
706;BME280;21234;48.690;9.016;2023-01-28T03:40:04;96619.59;;;-1.24;100.00
706;BME280;21234;48.690;9.016;2023-01-28T03:42:31;96613.91;;;-1.21;100.00
706;BME280;21234;48.690;9.016;2023-01-28T03:44:58;96620.25;;;-1.22;100.00
706;BME280;21234;48.690;9.016;2023-01-28T03:47:31;96626.91;;;-1.18;100.00
706;BME280;21234;48.690;9.016;2023-01-28T03:49:58;96619.59;;;-1.24;100.00
706;BME280;21234;48.690;9.016;2023-01-28T03:52:26;96623.94;;;-1.31;100.00
706;BME280;21234;48.690;9.016;2023-01-28T03:54:54;96631.75;;;-1.29;100.00
706;BME280;21234;48.690;9.016;2023-01-28T03:57:24;96635.09;;;-1.27;100.00
706;BME280;21234;48.690;9.016;2023-01-28T03:59:51;96638.25;;;-1.24;100.00
706;BME280;21234;48.690;9.016;2023-01-28T04:02:19;96630.59;;;-1.27;100.00
706;BME280;21234;48.690;9.016;2023-01-28T04:04:48;96631.09;;;-1.23;100.00
706;BME280;21234;48.690;9.016;2023-01-28T04:07:15;96629.09;;;-1.29;100.00
706;BME280;21234;48.690;9.016;2023-01-28T04:09:42;96621.09;;;-1.29;100.00
706;BME280;21234;48.690;9.016;2023-01-28T04:12:09;96618.75;;;-1.24;100.00
706;BME280;21234;48.690;9.016;2023-01-28T04:14:36;96627.59;;;-1.24;100.00
706;BME280;21234;48.690;9.016;2023-01-28T04:17:04;96627.59;;;-1.16;100.00
706;BME280;21234;48.690;9.016;2023-01-28T04:19:31;96628.09;;;-1.20;100.00
706;BME280;21234;48.690;9.016;2023-01-28T04:22:03;96640.09;;;-1.08;100.00
706;BME280;21234;48.690;9.016;2023-01-28T04:24:30;96638.44;;;-1.17;100.00
706;BME280;21234;48.690;9.016;2023-01-28T04:26:57;96646.25;;;-1.16;100.00
706;BME280;21234;48.690;9.016;2023-01-28T04:29:24;96647.94;;;-1.15;100.00
706;BME280;21234;48.690;9.016;2023-01-28T04:31:50;96649.44;;;-1.20;100.00
706;BME280;21234;48.690;9.016;2023-01-28T04:34:17;96648.75;;;-1.14;100.00
706;BME280;21234;48.690;9.016;2023-01-28T04:36:44;96649.44;;;-1.20;100.00
706;BME280;21234;48.690;9.016;2023-01-28T04:39:13;96651.75;;;-1.17;100.00
706;BME280;21234;48.690;9.016;2023-01-28T04:41:39;96650.94;;;-1.18;100.00
706;BME280;21234;48.690;9.016;2023-01-28T04:44:06;96646.94;;;-1.22;100.00
706;BME280;21234;48.690;9.016;2023-01-28T04:46:33;96659.28;;;-1.13;100.00
706;BME280;21234;48.690;9.016;2023-01-28T04:49:00;96659.09;;;-1.11;100.00
706;BME280;21234;48.690;9.016;2023-01-28T04:51:27;96654.59;;;-1.11;100.00
706;BME280;21234;48.690;9.016;2023-01-28T04:53:54;96661.78;;;-1.03;100.00
706;BME280;21234;48.690;9.016;2023-01-28T04:56:22;96662.09;;;-1.06;100.00
706;BME280;21234;48.690;9.016;2023-01-28T04:58:49;96662.78;;;-1.12;100.00
706;BME280;21234;48.690;9.016;2023-01-28T05:01:16;96664.59;;;-1.13;100.00
706;BME280;21234;48.690;9.016;2023-01-28T05:03:42;96662.28;;;-1.16;100.00
706;BME280;21234;48.690;9.016;2023-01-28T05:06:09;96665.78;;;-1.15;100.00
706;BME280;21234;48.690;9.016;2023-01-28T05:08:36;96668.28;;;-1.14;100.00
706;BME280;21234;48.690;9.016;2023-01-28T05:11:02;96671.44;;;-1.18;100.00
706;BME280;21234;48.690;9.016;2023-01-28T05:13:31;96672.09;;;-1.16;100.00
706;BME280;21234;48.690;9.016;2023-01-28T05:15:57;96666.28;;;-1.12;100.00
706;BME280;21234;48.690;9.016;2023-01-28T05:18:24;96674.59;;;-1.15;100.00
706;BME280;21234;48.690;9.016;2023-01-28T05:20:51;96681.44;;;-1.12;100.00
706;BME280;21234;48.690;9.016;2023-01-28T05:23:17;96674.78;;;-1.16;100.00
706;BME280;21234;48.690;9.016;2023-01-28T05:25:44;96672.28;;;-1.18;100.00
706;BME280;21234;48.690;9.016;2023-01-28T05:28:11;96681.13;;;-1.09;100.00
706;BME280;21234;48.690;9.016;2023-01-28T05:30:39;96670.59;;;-1.11;100.00
706;BME280;21234;48.690;9.016;2023-01-28T05:33:06;96681.78;;;-1.15;100.00
706;BME280;21234;48.690;9.016;2023-01-28T05:35:33;96674.94;;;-1.10;100.00
706;BME280;21234;48.690;9.016;2023-01-28T05:38:00;96671.94;;;-1.15;100.00
706;BME280;21234;48.690;9.016;2023-01-28T05:40:27;96678.28;;;-1.16;100.00
706;BME280;21234;48.690;9.016;2023-01-28T05:42:54;96670.78;;;-1.12;100.00
706;BME280;21234;48.690;9.016;2023-01-28T05:45:20;96679.44;;;-1.18;100.00
706;BME280;21234;48.690;9.016;2023-01-28T05:47:49;96682.94;;;-1.18;100.00
706;BME280;21234;48.690;9.016;2023-01-28T05:50:15;96679.13;;;-1.15;100.00
706;BME280;21234;48.690;9.016;2023-01-28T05:52:42;96680.28;;;-1.18;100.00
706;BME280;21234;48.690;9.016;2023-01-28T05:55:09;96674.28;;;-1.20;100.00
706;BME280;21234;48.690;9.016;2023-01-28T05:57:36;96675.09;;;-1.19;100.00
706;BME280;21234;48.690;9.016;2023-01-28T06:00:04;96677.09;;;-1.13;100.00
706;BME280;21234;48.690;9.016;2023-01-28T06:02:31;96686.94;;;-1.06;100.00
706;BME280;21234;48.690;9.016;2023-01-28T06:04:59;96678.78;;;-1.04;100.00
706;BME280;21234;48.690;9.016;2023-01-28T06:07:26;96684.78;;;-1.10;100.00
706;BME280;21234;48.690;9.016;2023-01-28T06:09:53;96691.94;;;-1.11;100.00
706;BME280;21234;48.690;9.016;2023-01-28T06:12:19;96691.94;;;-1.11;100.00
706;BME280;21234;48.690;9.016;2023-01-28T06:14:46;96697.47;;;-1.04;100.00
706;BME280;21234;48.690;9.016;2023-01-28T06:17:13;96693.09;;;-0.97;100.00
706;BME280;21234;48.690;9.016;2023-01-28T06:19:39;96700.13;;;-1.04;100.00
706;BME280;21234;48.690;9.016;2023-01-28T06:22:08;96702.13;;;-1.06;100.00
706;BME280;21234;48.690;9.016;2023-01-28T06:24:34;96709.63;;;-1.10;100.00
706;BME280;21234;48.690;9.016;2023-01-28T06:27:01;96713.44;;;-0.96;100.00
706;BME280;21234;48.690;9.016;2023-01-28T06:29:28;96729.97;;;-1.00;100.00
706;BME280;21234;48.690;9.016;2023-01-28T06:31:54;96728.47;;;-0.95;100.00
706;BME280;21234;48.690;9.016;2023-01-28T06:34:21;96726.16;;;-0.98;100.00
706;BME280;21234;48.690;9.016;2023-01-28T06:36:48;96739.13;;;-0.95;100.00
706;BME280;21234;48.690;9.016;2023-01-28T06:39:16;96729.28;;;-0.94;100.00
706;BME280;21234;48.690;9.016;2023-01-28T06:41:43;96739.13;;;-0.95;100.00
706;BME280;21234;48.690;9.016;2023-01-28T06:44:10;96744.13;;;-0.92;100.00
706;BME280;21234;48.690;9.016;2023-01-28T06:46:36;96733.78;;;-0.95;100.00
706;BME280;21234;48.690;9.016;2023-01-28T06:49:03;96739.97;;;-0.94;100.00
706;BME280;21234;48.690;9.016;2023-01-28T06:51:30;96742.81;;;-0.88;100.00
706;BME280;21234;48.690;9.016;2023-01-28T06:53:57;96751.00;;;-0.97;100.00
706;BME280;21234;48.690;9.016;2023-01-28T06:56:25;96751.00;;;-1.06;100.00
706;BME280;21234;48.690;9.016;2023-01-28T06:58:52;96752.81;;;-1.06;100.00
706;BME280;21234;48.690;9.016;2023-01-28T07:01:19;96754.47;;;-0.97;100.00
706;BME280;21234;48.690;9.016;2023-01-28T07:03:45;96755.34;;;-1.05;100.00
706;BME280;21234;48.690;9.016;2023-01-28T07:06:12;96756.84;;;-1.02;100.00
706;BME280;21234;48.690;9.016;2023-01-28T07:08:39;96749.16;;;-1.05;100.00
706;BME280;21234;48.690;9.016;2023-01-28T07:11:05;96752.66;;;-1.05;100.00
706;BME280;21234;48.690;9.016;2023-01-28T07:13:34;96764.50;;;-0.99;100.00
706;BME280;21234;48.690;9.016;2023-01-28T07:16:00;96754.81;;;-1.08;100.00
706;BME280;21234;48.690;9.016;2023-01-28T07:18:28;96756.84;;;-1.02;100.00
706;BME280;21234;48.690;9.016;2023-01-28T07:20:55;96761.47;;;-0.96;100.00
706;BME280;21234;48.690;9.016;2023-01-28T07:23:22;96762.00;;;-1.00;100.00
706;BME280;21234;48.690;9.016;2023-01-28T07:25:48;96762.16;;;-0.94;100.00
706;BME280;21234;48.690;9.016;2023-01-28T07:28:15;96763.69;;;-0.99;100.00
706;BME280;21234;48.690;9.016;2023-01-28T07:30:48;96766.50;;;-0.93;100.00
706;BME280;21234;48.690;9.016;2023-01-28T07:33:15;96775.50;;;-0.94;100.00
706;BME280;21234;48.690;9.016;2023-01-28T07:35:42;96770.00;;;-0.92;100.00
706;BME280;21234;48.690;9.016;2023-01-28T07:38:09;96770.34;;;-0.87;100.00
706;BME280;21234;48.690;9.016;2023-01-28T07:40:35;96769.16;;;-0.77;100.00
706;BME280;21234;48.690;9.016;2023-01-28T07:43:02;96768.00;;;-0.74;100.00
706;BME280;21234;48.690;9.016;2023-01-28T07:45:31;96764.84;;;-0.78;100.00
706;BME280;21234;48.690;9.016;2023-01-28T07:48:01;96778.19;;;-0.70;100.00
706;BME280;21234;48.690;9.016;2023-01-28T07:50:30;96775.50;;;-0.70;100.00
706;BME280;21234;48.690;9.016;2023-01-28T07:52:57;96777.69;;;-0.65;100.00
706;BME280;21234;48.690;9.016;2023-01-28T07:55:24;96785.03;;;-0.67;100.00
706;BME280;21234;48.690;9.016;2023-01-28T07:57:52;96781.16;;;-0.64;100.00
706;BME280;21234;48.690;9.016;2023-01-28T08:00:19;96788.19;;;-0.72;100.00
706;BME280;21234;48.690;9.016;2023-01-28T08:02:47;96792.53;;;-0.71;100.00
706;BME280;21234;48.690;9.016;2023-01-28T08:05:16;96786.88;;;-0.68;100.00
706;BME280;21234;48.690;9.016;2023-01-28T08:07:43;96788.69;;;-0.68;100.00
706;BME280;21234;48.690;9.016;2023-01-28T08:10:11;96793.72;;;-0.65;100.00
706;BME280;21234;48.690;9.016;2023-01-28T08:12:37;96799.34;;;-0.60;100.00
706;BME280;21234;48.690;9.016;2023-01-28T08:15:05;96792.84;;;-0.57;100.00
706;BME280;21234;48.690;9.016;2023-01-28T08:17:32;96798.84;;;-0.55;100.00
706;BME280;21234;48.690;9.016;2023-01-28T08:20:01;96796.69;;;-0.52;100.00
706;BME280;21234;48.690;9.016;2023-01-28T08:22:31;96798.03;;;-0.56;100.00
706;BME280;21234;48.690;9.016;2023-01-28T08:24:58;96801.69;;;-0.57;100.00
706;BME280;21234;48.690;9.016;2023-01-28T08:27:25;96800.69;;;-0.56;100.00
706;BME280;21234;48.690;9.016;2023-01-28T08:29:51;96810.03;;;-0.52;100.00
706;BME280;21234;48.690;9.016;2023-01-28T08:32:18;96804.84;;;-0.45;100.00
706;BME280;21234;48.690;9.016;2023-01-28T08:34:45;96806.19;;;-0.49;100.00
706;BME280;21234;48.690;9.016;2023-01-28T08:37:11;96813.22;;;-0.48;100.00
706;BME280;21234;48.690;9.016;2023-01-28T08:39:39;96811.72;;;-0.51;100.00
706;BME280;21234;48.690;9.016;2023-01-28T08:42:07;96813.88;;;-0.46;100.00
706;BME280;21234;48.690;9.016;2023-01-28T08:44:34;96813.03;;;-0.47;100.00
706;BME280;21234;48.690;9.016;2023-01-28T08:47:00;96816.72;;;-0.40;100.00
706;BME280;21234;48.690;9.016;2023-01-28T08:49:27;96811.53;;;-0.33;100.00
706;BME280;21234;48.690;9.016;2023-01-28T08:51:53;96818.34;;;-0.30;100.00
706;BME280;21234;48.690;9.016;2023-01-28T08:54:20;96812.38;;;-0.32;100.00
706;BME280;21234;48.690;9.016;2023-01-28T08:56:49;96810.88;;;-0.35;100.00
706;BME280;21234;48.690;9.016;2023-01-28T08:59:16;96813.16;;;-0.32;100.00
706;BME280;21234;48.690;9.016;2023-01-28T09:01:43;96804.00;;;-0.29;100.00
706;BME280;21234;48.690;9.016;2023-01-28T09:04:09;96810.84;;;-0.27;100.00
706;BME280;21234;48.690;9.016;2023-01-28T09:06:36;96820.34;;;-0.24;100.00
706;BME280;21234;48.690;9.016;2023-01-28T09:09:03;96817.50;;;-0.23;100.00
706;BME280;21234;48.690;9.016;2023-01-28T09:11:30;96821.19;;;-0.16;99.67
706;BME280;21234;48.690;9.016;2023-01-28T09:13:58;96818.34;;;-0.14;99.68
706;BME280;21234;48.690;9.016;2023-01-28T09:16:24;96820.84;;;-0.13;99.77
706;BME280;21234;48.690;9.016;2023-01-28T09:18:51;96816.81;;;-0.09;98.83
706;BME280;21234;48.690;9.016;2023-01-28T09:21:18;96825.84;;;-0.10;98.72
706;BME280;21234;48.690;9.016;2023-01-28T09:23:45;96824.50;;;-0.14;98.01
706;BME280;21234;48.690;9.016;2023-01-28T09:26:12;96832.03;;;-0.09;98.15
706;BME280;21234;48.690;9.016;2023-01-28T09:28:38;96834.38;;;-0.06;97.49
706;BME280;21234;48.690;9.016;2023-01-28T09:31:08;96833.47;;;0.02;98.26
706;BME280;21234;48.690;9.016;2023-01-28T09:33:36;96828.81;;;0.04;97.36
706;BME280;21234;48.690;9.016;2023-01-28T09:36:04;96844.53;;;-0.02;96.57
706;BME280;21234;48.690;9.016;2023-01-28T09:38:32;96844.19;;;0.02;96.46
706;BME280;21234;48.690;9.016;2023-01-28T09:40:59;96849.69;;;0.08;96.79
706;BME280;21234;48.690;9.016;2023-01-28T09:43:50;96851.19;;;0.11;96.20
706;BME280;21234;48.690;9.016;2023-01-28T09:46:27;96855.34;;;0.13;95.23
706;BME280;21234;48.690;9.016;2023-01-28T09:48:57;96852.19;;;0.10;96.25
706;BME280;21234;48.690;9.016;2023-01-28T09:51:31;96855.53;;;0.12;96.06
706;BME280;21234;48.690;9.016;2023-01-28T09:54:02;96856.50;;;0.19;95.36
706;BME280;21234;48.690;9.016;2023-01-28T09:56:31;96858.34;;;0.18;96.42
706;BME280;21234;48.690;9.016;2023-01-28T09:59:10;96856.50;;;0.19;95.88
706;BME280;21234;48.690;9.016;2023-01-28T10:01:46;96860.38;;;0.08;95.52
706;BME280;21234;48.690;9.016;2023-01-28T10:04:25;96854.41;;;-0.10;94.92
706;BME280;21234;48.690;9.016;2023-01-28T10:07:09;96862.25;;;-0.01;95.29
706;BME280;21234;48.690;9.016;2023-01-28T10:09:45;96860.03;;;0.03;96.27
706;BME280;21234;48.690;9.016;2023-01-28T10:12:26;96853.03;;;0.02;96.59
706;BME280;21234;48.690;9.016;2023-01-28T10:15:09;96851.19;;;0.11;96.31
706;BME280;21234;48.690;9.016;2023-01-28T10:17:47;96857.03;;;0.14;94.97
706;BME280;21234;48.690;9.016;2023-01-28T10:20:19;96852.69;;;0.05;95.59
706;BME280;21234;48.690;9.016;2023-01-28T10:22:49;96842.03;;;-0.03;95.11
706;BME280;21234;48.690;9.016;2023-01-28T10:25:19;96848.34;;;0.04;94.30
706;BME280;21234;48.690;9.016;2023-01-28T10:27:47;96852.53;;;0.07;94.62
706;BME280;21234;48.690;9.016;2023-01-28T10:30:18;96845.00;;;0.02;94.79
706;BME280;21234;48.690;9.016;2023-01-28T10:32:50;96843.66;;;0.06;95.09
706;BME280;21234;48.690;9.016;2023-01-28T10:35:17;96852.69;;;0.05;94.72
706;BME280;21234;48.690;9.016;2023-01-28T10:37:44;96841.66;;;0.08;94.87
706;BME280;21234;48.690;9.016;2023-01-28T10:40:13;96836.97;;;0.10;94.78
706;BME280;21234;48.690;9.016;2023-01-28T10:42:40;96842.16;;;0.12;94.58
706;BME280;21234;48.690;9.016;2023-01-28T10:45:14;96844.16;;;0.10;94.04
706;BME280;21234;48.690;9.016;2023-01-28T10:47:45;96844.97;;;0.18;94.99
706;BME280;21234;48.690;9.016;2023-01-28T10:50:19;96841.63;;;0.24;95.60
706;BME280;21234;48.690;9.016;2023-01-28T10:52:54;96846.16;;;0.08;94.05
706;BME280;21234;48.690;9.016;2023-01-28T10:55:21;96842.47;;;0.17;94.31
706;BME280;21234;48.690;9.016;2023-01-28T10:57:49;96837.31;;;0.15;94.91
706;BME280;21234;48.690;9.016;2023-01-28T11:00:23;96832.78;;;0.24;94.98
706;BME280;21234;48.690;9.016;2023-01-28T11:02:51;96836.78;;;0.28;94.84
706;BME280;21234;48.690;9.016;2023-01-28T11:05:22;96839.47;;;0.20;95.75
706;BME280;21234;48.690;9.016;2023-01-28T11:08:02;96840.50;;;0.11;96.67
706;BME280;21234;48.690;9.016;2023-01-28T11:10:31;96842.84;;;0.06;96.95
706;BME280;21234;48.690;9.016;2023-01-28T11:12:59;96843.00;;;0.04;97.41
706;BME280;21234;48.690;9.016;2023-01-28T11:15:27;96844.19;;;0.02;97.71
706;BME280;21234;48.690;9.016;2023-01-28T11:17:56;96837.88;;;-0.06;98.33
706;BME280;21234;48.690;9.016;2023-01-28T11:20:26;96836.19;;;-0.07;97.98
706;BME280;21234;48.690;9.016;2023-01-28T11:22:54;96834.84;;;-0.03;98.19
706;BME280;21234;48.690;9.016;2023-01-28T11:25:27;96839.84;;;0.00;98.51
706;BME280;21234;48.690;9.016;2023-01-28T11:27:56;96829.81;;;0.03;98.64
706;BME280;21234;48.690;9.016;2023-01-28T11:30:26;96829.97;;;0.09;97.37
706;BME280;21234;48.690;9.016;2023-01-28T11:32:55;96843.00;;;0.12;97.23
706;BME280;21234;48.690;9.016;2023-01-28T11:35:27;96845.84;;;0.11;97.46
706;BME280;21234;48.690;9.016;2023-01-28T11:37:55;96846.16;;;0.16;96.88
706;BME280;21234;48.690;9.016;2023-01-28T11:40:23;96839.16;;;0.15;96.92
706;BME280;21234;48.690;9.016;2023-01-28T11:42:50;96845.31;;;0.15;97.09
706;BME280;21234;48.690;9.016;2023-01-28T11:45:23;96843.97;;;0.19;96.75
706;BME280;21234;48.690;9.016;2023-01-28T11:48:06;96843.66;;;0.14;96.66
706;BME280;21234;48.690;9.016;2023-01-28T11:50:43;96840.31;;;0.12;96.57
706;BME280;21234;48.690;9.016;2023-01-28T11:53:36;96840.31;;;0.12;96.57
706;BME280;21234;48.690;9.016;2023-01-28T11:56:30;96848.00;;;0.07;96.00
706;BME280;21234;48.690;9.016;2023-01-28T11:59:18;96842.81;;;0.14;96.19
706;BME280;21234;48.690;9.016;2023-01-28T12:01:54;96840.81;;;0.16;96.18
706;BME280;21234;48.690;9.016;2023-01-28T12:04:34;96840.47;;;0.19;96.79
706;BME280;21234;48.690;9.016;2023-01-28T12:07:20;96847.50;;;0.20;96.63
706;BME280;21234;48.690;9.016;2023-01-28T12:09:55;96842.47;;;0.17;96.16
706;BME280;21234;48.690;9.016;2023-01-28T12:12:53;96842.47;;;0.17;95.52
706;BME280;21234;48.690;9.016;2023-01-28T12:18:27;96844.66;;;0.13;96.18
706;BME280;21234;48.690;9.016;2023-01-28T12:21:02;96840.97;;;0.14;97.41
706;BME280;21234;48.690;9.016;2023-01-28T12:23:52;96844.31;;;0.16;97.06
706;BME280;21234;48.690;9.016;2023-01-28T12:26:27;96848.84;;;0.16;96.32
706;BME280;21234;48.690;9.016;2023-01-28T12:29:09;96838.97;;;0.16;96.52
706;BME280;21234;48.690;9.016;2023-01-28T12:32:02;96838.97;;;0.16;96.88
706;BME280;21234;48.690;9.016;2023-01-28T12:35:06;96842.66;;;0.15;96.65
706;BME280;21234;48.690;9.016;2023-01-28T12:37:47;96849.00;;;0.06;97.30
706;BME280;21234;48.690;9.016;2023-01-28T12:40:56;96841.50;;;0.02;97.07
706;BME280;21234;48.690;9.016;2023-01-28T12:43:36;96848.88;;;-0.01;96.74
706;BME280;21234;48.690;9.016;2023-01-28T12:46:10;96843.34;;;0.09;96.61
706;BME280;21234;48.690;9.016;2023-01-28T12:48:40;96838.50;;;0.05;96.65
706;BME280;21234;48.690;9.016;2023-01-28T12:51:13;96834.81;;;0.06;97.39
706;BME280;21234;48.690;9.016;2023-01-28T12:53:45;96834.97;;;0.04;97.35
706;BME280;21234;48.690;9.016;2023-01-28T12:56:17;96836.47;;;0.07;97.27
706;BME280;21234;48.690;9.016;2023-01-28T12:58:49;96832.19;;;-0.03;97.36
706;BME280;21234;48.690;9.016;2023-01-28T13:01:23;96827.84;;;-0.04;97.98
706;BME280;21234;48.690;9.016;2023-01-28T13:03:56;96828.13;;;0.02;97.53
706;BME280;21234;48.690;9.016;2023-01-28T13:06:29;96829.13;;;0.09;97.61
706;BME280;21234;48.690;9.016;2023-01-28T13:08:59;96828.47;;;0.07;97.92
706;BME280;21234;48.690;9.016;2023-01-28T13:11:33;96837.16;;;0.00;98.24
706;BME280;21234;48.690;9.016;2023-01-28T13:14:02;96833.81;;;0.07;98.39
706;BME280;21234;48.690;9.016;2023-01-28T13:16:29;96835.81;;;0.05;98.97
706;BME280;21234;48.690;9.016;2023-01-28T13:19:05;96836.47;;;0.07;98.54
706;BME280;21234;48.690;9.016;2023-01-28T13:21:34;96832.16;;;0.06;99.17
706;BME280;21234;48.690;9.016;2023-01-28T13:24:21;96834.31;;;0.02;99.24
706;BME280;21234;48.690;9.016;2023-01-28T13:26:50;96833.16;;;0.05;98.81
706;BME280;21234;48.690;9.016;2023-01-28T13:29:21;96834.84;;;-0.03;98.71
706;BME280;21234;48.690;9.016;2023-01-28T13:31:54;96838.16;;;0.08;99.26
706;BME280;21234;48.690;9.016;2023-01-28T13:34:29;96837.97;;;0.09;99.76
706;BME280;21234;48.690;9.016;2023-01-28T13:37:00;96842.81;;;0.14;99.06
706;BME280;21234;48.690;9.016;2023-01-28T13:39:28;96841.31;;;0.19;97.97
706;BME280;21234;48.690;9.016;2023-01-28T13:42:18;96845.19;;;0.00;98.40
706;BME280;21234;48.690;9.016;2023-01-28T13:44:46;96843.16;;;0.11;98.64
706;BME280;21234;48.690;9.016;2023-01-28T13:47:20;96847.16;;;0.15;98.91